首页
METAR-TAF:

METAR-TAF

机场 :

Avord, 法国

纬度: 47-03-12N, 经度: 002-37-57E, 海拔: 177米

当前天气观测

该预报发布于31分钟前的13:00 UTC
风速7节,风向东转东南
温度 27°C
湿度 51%
气压 1011 hPa
能见度10公里或以上
1500米以下无云,无积雨云

METAR: LFOA 181300Z AUTO 12007KT CAVOK 27/16 Q1011 NOSIG

时间: 15:31 (13:31 UTC)

预报

该预报发布于5小时和31分钟前的08:00 UTC
预报有效从18日的 09点(UTC)到 19日的 09点(UTC)
风速6节,风向东转东南
能见度10公里或以上
1500米以下无云,无积雨云
几率 40% :
短暂存在
从 18日的 11点(UTC)到 18日的 13点(UTC)
散云层高于8000英尺, 塔状积云.
成为
从 18日的 23点(UTC)到 19日的 01点(UTC)
风速10节,风向西转西南
几率 40% :
短暂存在
从 19日的 01点(UTC)到 19日的 06点(UTC)
风速15节,风向多变,有时为35节阵风
能見度: 4000
散云层高于8000英尺, 积雨云.
阵雨
几率 30% :
短暂存在
从 19日的 01点(UTC)到 19日的 04点(UTC)
风速25节,风向西南,有时为45节阵风
能見度: 2000
多云层高于1000英尺
多云层高于8000英尺, 积雨云.
雷暴, 雨, 小冰雹或雪球

TAF: LFOA 180800Z 1809/1909 11006KT CAVOK PROB40 TEMPO 1811/1813 SCT080TCU BECMG 1823/1901 25010KT PROB40 TEMPO 1901/1906 VRB15G35KT 4000 SHRA SCT080CB PROB30 TEMPO 1901/1904 22025G45KT 2000 TSRAGS BKN010 BKN080CB

超过4000个机场的气象观测和天气预报(METAR&TAF报告)。

可查询的气象台以黄色和红色小点在地图上表示。

将鼠标移到小点上方,可查看气象台名称。

然后点击查看天气观测和预报。

如需切换地图:点击带黑十字的绿色按钮放大地图;点击带横线的绿色按钮缩小地图;或者点击绿色箭头查看邻近地区的地图。


METAR-TAF: